sensor_id;sensor_type;location;lat;lon;timestamp;P1;durP1;ratioP1;P2;durP2;ratioP2
5209;SDS011;2624;48.048;11.706;2022-12-11T00:00:06;3.90;;;2.80;;
5209;SDS011;2624;48.048;11.706;2022-12-11T00:05:12;23.57;;;9.17;;
5209;SDS011;2624;48.048;11.706;2022-12-11T00:10:15;16.83;;;7.70;;
5209;SDS011;2624;48.048;11.706;2022-12-11T00:15:16;19.93;;;8.70;;
5209;SDS011;2624;48.048;11.706;2022-12-11T00:20:20;4.10;;;2.67;;
5209;SDS011;2624;48.048;11.706;2022-12-11T00:25:21;2.13;;;1.40;;
5209;SDS011;2624;48.048;11.706;2022-12-11T00:30:23;13.33;;;5.23;;
5209;SDS011;2624;48.048;11.706;2022-12-11T00:35:26;18.43;;;6.30;;
5209;SDS011;2624;48.048;11.706;2022-12-11T00:40:28;13.90;;;7.53;;
5209;SDS011;2624;48.048;11.706;2022-12-11T00:45:30;1.37;;;1.37;;
5209;SDS011;2624;48.048;11.706;2022-12-11T00:50:37;5.43;;;4.03;;
5209;SDS011;2624;48.048;11.706;2022-12-11T00:55:40;18.20;;;8.90;;
5209;SDS011;2624;48.048;11.706;2022-12-11T01:00:43;12.93;;;6.77;;
5209;SDS011;2624;48.048;11.706;2022-12-11T01:05:52;13.70;;;7.13;;
5209;SDS011;2624;48.048;11.706;2022-12-11T01:10:59;20.53;;;7.90;;
5209;SDS011;2624;48.048;11.706;2022-12-11T01:16:05;22.30;;;9.17;;
5209;SDS011;2624;48.048;11.706;2022-12-11T01:21:09;19.77;;;8.23;;
5209;SDS011;2624;48.048;11.706;2022-12-11T01:26:13;21.43;;;9.17;;
5209;SDS011;2624;48.048;11.706;2022-12-11T01:31:15;17.10;;;7.20;;
5209;SDS011;2624;48.048;11.706;2022-12-11T01:36:20;15.60;;;7.63;;
5209;SDS011;2624;48.048;11.706;2022-12-11T01:41:22;15.13;;;6.23;;
5209;SDS011;2624;48.048;11.706;2022-12-11T01:46:24;15.03;;;6.07;;
5209;SDS011;2624;48.048;11.706;2022-12-11T01:51:29;15.67;;;5.80;;
5209;SDS011;2624;48.048;11.706;2022-12-11T01:56:33;11.00;;;5.90;;
5209;SDS011;2624;48.048;11.706;2022-12-11T02:01:38;13.43;;;6.70;;
5209;SDS011;2624;48.048;11.706;2022-12-11T02:06:46;20.57;;;7.80;;
5209;SDS011;2624;48.048;11.706;2022-12-11T02:11:51;12.40;;;6.37;;
5209;SDS011;2624;48.048;11.706;2022-12-11T02:17:02;20.50;;;7.00;;
5209;SDS011;2624;48.048;11.706;2022-12-11T02:22:14;15.87;;;7.27;;
5209;SDS011;2624;48.048;11.706;2022-12-11T02:27:28;12.30;;;6.83;;
5209;SDS011;2624;48.048;11.706;2022-12-11T02:32:38;15.57;;;7.77;;
5209;SDS011;2624;48.048;11.706;2022-12-11T02:37:45;9.50;;;5.47;;
5209;SDS011;2624;48.048;11.706;2022-12-11T02:42:49;13.00;;;5.90;;
5209;SDS011;2624;48.048;11.706;2022-12-11T02:47:54;14.90;;;6.30;;
5209;SDS011;2624;48.048;11.706;2022-12-11T02:52:58;6.17;;;4.30;;
5209;SDS011;2624;48.048;11.706;2022-12-11T02:58:04;19.03;;;7.73;;
5209;SDS011;2624;48.048;11.706;2022-12-11T03:03:14;15.13;;;6.30;;
5209;SDS011;2624;48.048;11.706;2022-12-11T03:08:16;12.80;;;6.50;;
5209;SDS011;2624;48.048;11.706;2022-12-11T03:13:18;6.40;;;4.97;;
5209;SDS011;2624;48.048;11.706;2022-12-11T03:18:25;9.47;;;5.03;;
5209;SDS011;2624;48.048;11.706;2022-12-11T03:23:32;11.07;;;6.67;;
5209;SDS011;2624;48.048;11.706;2022-12-11T03:28:40;13.93;;;6.20;;
5209;SDS011;2624;48.048;11.706;2022-12-11T03:33:48;8.23;;;4.13;;
5209;SDS011;2624;48.048;11.706;2022-12-11T03:38:55;7.23;;;3.93;;
5209;SDS011;2624;48.048;11.706;2022-12-11T03:44:01;9.60;;;5.57;;
5209;SDS011;2624;48.048;11.706;2022-12-11T03:49:04;9.80;;;5.73;;
5209;SDS011;2624;48.048;11.706;2022-12-11T03:54:09;2.40;;;2.30;;
5209;SDS011;2624;48.048;11.706;2022-12-11T03:59:11;12.50;;;5.23;;
5209;SDS011;2624;48.048;11.706;2022-12-11T04:04:14;16.90;;;4.87;;
5209;SDS011;2624;48.048;11.706;2022-12-11T04:09:16;14.60;;;5.03;;
5209;SDS011;2624;48.048;11.706;2022-12-11T04:14:18;7.03;;;3.50;;
5209;SDS011;2624;48.048;11.706;2022-12-11T04:19:39;10.30;;;5.07;;
5209;SDS011;2624;48.048;11.706;2022-12-11T04:24:58;5.10;;;2.87;;
5209;SDS011;2624;48.048;11.706;2022-12-11T04:30:01;8.70;;;4.30;;
5209;SDS011;2624;48.048;11.706;2022-12-11T04:35:04;5.77;;;3.50;;
5209;SDS011;2624;48.048;11.706;2022-12-11T04:40:08;13.60;;;6.17;;
5209;SDS011;2624;48.048;11.706;2022-12-11T04:45:12;8.23;;;5.20;;
5209;SDS011;2624;48.048;11.706;2022-12-11T04:50:15;12.90;;;5.30;;
5209;SDS011;2624;48.048;11.706;2022-12-11T04:55:17;8.87;;;4.73;;
5209;SDS011;2624;48.048;11.706;2022-12-11T05:00:19;12.00;;;5.30;;
5209;SDS011;2624;48.048;11.706;2022-12-11T05:05:23;13.83;;;5.67;;
5209;SDS011;2624;48.048;11.706;2022-12-11T05:10:25;5.50;;;3.97;;
5209;SDS011;2624;48.048;11.706;2022-12-11T05:15:26;9.50;;;4.60;;
5209;SDS011;2624;48.048;11.706;2022-12-11T05:20:29;4.27;;;3.80;;
5209;SDS011;2624;48.048;11.706;2022-12-11T05:25:31;12.27;;;5.40;;
5209;SDS011;2624;48.048;11.706;2022-12-11T05:30:33;12.90;;;4.83;;
5209;SDS011;2624;48.048;11.706;2022-12-11T05:35:36;6.53;;;3.20;;
5209;SDS011;2624;48.048;11.706;2022-12-11T05:40:38;5.03;;;4.20;;
5209;SDS011;2624;48.048;11.706;2022-12-11T05:45:40;15.73;;;4.37;;
5209;SDS011;2624;48.048;11.706;2022-12-11T05:50:43;10.40;;;5.00;;
5209;SDS011;2624;48.048;11.706;2022-12-11T05:55:45;14.60;;;5.17;;
5209;SDS011;2624;48.048;11.706;2022-12-11T06:00:47;11.60;;;6.40;;
5209;SDS011;2624;48.048;11.706;2022-12-11T06:05:50;10.37;;;5.00;;
5209;SDS011;2624;48.048;11.706;2022-12-11T06:10:52;6.80;;;4.30;;
5209;SDS011;2624;48.048;11.706;2022-12-11T06:15:54;3.80;;;3.50;;
5209;SDS011;2624;48.048;11.706;2022-12-11T06:20:57;11.67;;;4.17;;
5209;SDS011;2624;48.048;11.706;2022-12-11T06:25:59;10.70;;;4.97;;
5209;SDS011;2624;48.048;11.706;2022-12-11T06:31:03;12.20;;;4.53;;
5209;SDS011;2624;48.048;11.706;2022-12-11T06:36:07;8.13;;;4.33;;
5209;SDS011;2624;48.048;11.706;2022-12-11T06:41:10;11.20;;;5.13;;
5209;SDS011;2624;48.048;11.706;2022-12-11T06:46:14;9.80;;;4.10;;
5209;SDS011;2624;48.048;11.706;2022-12-11T06:51:20;11.57;;;4.53;;
5209;SDS011;2624;48.048;11.706;2022-12-11T06:56:23;10.97;;;4.30;;
5209;SDS011;2624;48.048;11.706;2022-12-11T07:01:25;8.77;;;3.90;;
5209;SDS011;2624;48.048;11.706;2022-12-11T07:06:29;7.20;;;3.77;;
5209;SDS011;2624;48.048;11.706;2022-12-11T07:11:31;7.00;;;3.23;;
5209;SDS011;2624;48.048;11.706;2022-12-11T07:16:33;10.20;;;4.53;;
5209;SDS011;2624;48.048;11.706;2022-12-11T07:21:36;10.27;;;3.57;;
5209;SDS011;2624;48.048;11.706;2022-12-11T07:26:38;8.97;;;4.43;;
5209;SDS011;2624;48.048;11.706;2022-12-11T07:31:40;7.70;;;3.57;;
5209;SDS011;2624;48.048;11.706;2022-12-11T07:36:43;19.57;;;4.90;;
5209;SDS011;2624;48.048;11.706;2022-12-11T07:41:45;9.33;;;3.73;;
5209;SDS011;2624;48.048;11.706;2022-12-11T07:46:46;8.93;;;3.70;;
5209;SDS011;2624;48.048;11.706;2022-12-11T07:51:50;6.93;;;3.50;;
5209;SDS011;2624;48.048;11.706;2022-12-11T07:56:51;6.33;;;3.30;;
5209;SDS011;2624;48.048;11.706;2022-12-11T08:01:53;3.80;;;3.00;;
5209;SDS011;2624;48.048;11.706;2022-12-11T08:06:56;7.50;;;4.60;;
5209;SDS011;2624;48.048;11.706;2022-12-11T08:11:59;9.23;;;4.33;;
5209;SDS011;2624;48.048;11.706;2022-12-11T08:17:00;7.17;;;3.90;;
5209;SDS011;2624;48.048;11.706;2022-12-11T08:22:04;8.20;;;3.83;;
5209;SDS011;2624;48.048;11.706;2022-12-11T08:27:06;8.63;;;3.80;;
5209;SDS011;2624;48.048;11.706;2022-12-11T08:32:07;12.53;;;5.70;;
5209;SDS011;2624;48.048;11.706;2022-12-11T08:37:12;6.80;;;3.77;;
5209;SDS011;2624;48.048;11.706;2022-12-11T08:42:13;6.50;;;4.20;;
5209;SDS011;2624;48.048;11.706;2022-12-11T08:47:15;10.60;;;4.27;;
5209;SDS011;2624;48.048;11.706;2022-12-11T08:52:18;5.20;;;3.40;;
5209;SDS011;2624;48.048;11.706;2022-12-11T08:57:20;11.57;;;4.73;;
5209;SDS011;2624;48.048;11.706;2022-12-11T09:02:22;12.47;;;5.57;;
5209;SDS011;2624;48.048;11.706;2022-12-11T09:07:25;11.43;;;4.63;;
5209;SDS011;2624;48.048;11.706;2022-12-11T09:12:27;8.47;;;4.63;;
5209;SDS011;2624;48.048;11.706;2022-12-11T09:17:29;12.03;;;5.03;;
5209;SDS011;2624;48.048;11.706;2022-12-11T09:22:32;18.20;;;6.40;;
5209;SDS011;2624;48.048;11.706;2022-12-11T09:27:34;9.27;;;4.23;;
5209;SDS011;2624;48.048;11.706;2022-12-11T09:32:36;8.73;;;4.90;;
5209;SDS011;2624;48.048;11.706;2022-12-11T09:37:40;9.97;;;4.30;;
5209;SDS011;2624;48.048;11.706;2022-12-11T09:42:46;7.03;;;4.40;;
5209;SDS011;2624;48.048;11.706;2022-12-11T09:47:54;18.43;;;7.50;;
5209;SDS011;2624;48.048;11.706;2022-12-11T09:53:03;8.50;;;4.10;;
5209;SDS011;2624;48.048;11.706;2022-12-11T09:58:12;10.53;;;4.63;;
5209;SDS011;2624;48.048;11.706;2022-12-11T10:03:35;1.60;;;1.23;;
5209;SDS011;2624;48.048;11.706;2022-12-11T10:08:55;6.70;;;3.97;;
5209;SDS011;2624;48.048;11.706;2022-12-11T10:14:05;0.73;;;0.73;;
5209;SDS011;2624;48.048;11.706;2022-12-11T10:19:13;4.13;;;3.07;;
5209;SDS011;2624;48.048;11.706;2022-12-11T10:24:21;3.23;;;2.93;;
5209;SDS011;2624;48.048;11.706;2022-12-11T10:29:28;2.03;;;1.80;;
5209;SDS011;2624;48.048;11.706;2022-12-11T10:34:31;5.10;;;3.73;;
5209;SDS011;2624;48.048;11.706;2022-12-11T10:39:36;2.17;;;2.00;;
5209;SDS011;2624;48.048;11.706;2022-12-11T10:44:38;5.40;;;3.07;;
5209;SDS011;2624;48.048;11.706;2022-12-11T10:49:42;8.10;;;3.67;;
5209;SDS011;2624;48.048;11.706;2022-12-11T10:54:55;4.47;;;3.60;;
5209;SDS011;2624;48.048;11.706;2022-12-11T11:00:01;0.80;;;0.80;;
5209;SDS011;2624;48.048;11.706;2022-12-11T11:05:10;6.17;;;4.87;;
5209;SDS011;2624;48.048;11.706;2022-12-11T11:10:16;4.63;;;3.10;;
5209;SDS011;2624;48.048;11.706;2022-12-11T11:15:19;9.20;;;4.33;;
5209;SDS011;2624;48.048;11.706;2022-12-11T11:20:26;2.93;;;2.53;;
5209;SDS011;2624;48.048;11.706;2022-12-11T11:25:31;2.30;;;1.73;;
5209;SDS011;2624;48.048;11.706;2022-12-11T11:30:34;3.03;;;2.40;;
5209;SDS011;2624;48.048;11.706;2022-12-11T11:35:38;2.00;;;1.80;;
5209;SDS011;2624;48.048;11.706;2022-12-11T11:40:53;2.30;;;2.10;;
5209;SDS011;2624;48.048;11.706;2022-12-11T11:46:01;5.53;;;3.10;;
5209;SDS011;2624;48.048;11.706;2022-12-11T11:51:12;6.43;;;2.77;;
5209;SDS011;2624;48.048;11.706;2022-12-11T11:56:19;2.57;;;2.37;;
5209;SDS011;2624;48.048;11.706;2022-12-11T12:01:22;3.40;;;3.10;;
5209;SDS011;2624;48.048;11.706;2022-12-11T12:06:30;4.17;;;2.90;;
5209;SDS011;2624;48.048;11.706;2022-12-11T12:11:53;4.97;;;2.37;;
5209;SDS011;2624;48.048;11.706;2022-12-11T12:17:16;5.07;;;3.20;;
5209;SDS011;2624;48.048;11.706;2022-12-11T12:22:27;3.77;;;2.73;;
5209;SDS011;2624;48.048;11.706;2022-12-11T12:27:44;3.70;;;1.37;;
5209;SDS011;2624;48.048;11.706;2022-12-11T12:32:58;4.23;;;3.23;;
5209;SDS011;2624;48.048;11.706;2022-12-11T12:38:09;3.87;;;2.13;;
5209;SDS011;2624;48.048;11.706;2022-12-11T12:43:26;4.33;;;3.17;;
5209;SDS011;2624;48.048;11.706;2022-12-11T12:48:45;7.23;;;3.07;;
5209;SDS011;2624;48.048;11.706;2022-12-11T12:53:48;5.33;;;3.27;;
5209;SDS011;2624;48.048;11.706;2022-12-11T12:58:56;5.67;;;3.40;;
5209;SDS011;2624;48.048;11.706;2022-12-11T13:03:58;7.17;;;4.30;;
5209;SDS011;2624;48.048;11.706;2022-12-11T13:09:09;4.57;;;3.07;;
5209;SDS011;2624;48.048;11.706;2022-12-11T13:14:26;7.03;;;2.70;;
5209;SDS011;2624;48.048;11.706;2022-12-11T13:19:31;5.43;;;3.67;;
5209;SDS011;2624;48.048;11.706;2022-12-11T13:24:35;4.20;;;3.43;;
5209;SDS011;2624;48.048;11.706;2022-12-11T13:29:48;4.87;;;2.93;;
5209;SDS011;2624;48.048;11.706;2022-12-11T13:34:50;8.70;;;2.33;;
5209;SDS011;2624;48.048;11.706;2022-12-11T13:39:55;11.37;;;3.87;;
5209;SDS011;2624;48.048;11.706;2022-12-11T13:44:59;2.70;;;2.40;;
5209;SDS011;2624;48.048;11.706;2022-12-11T13:50:08;6.23;;;3.53;;
5209;SDS011;2624;48.048;11.706;2022-12-11T13:55:15;5.00;;;3.07;;
5209;SDS011;2624;48.048;11.706;2022-12-11T14:00:25;4.37;;;3.73;;
5209;SDS011;2624;48.048;11.706;2022-12-11T14:05:29;8.53;;;4.30;;
5209;SDS011;2624;48.048;11.706;2022-12-11T14:10:31;11.10;;;3.70;;
5209;SDS011;2624;48.048;11.706;2022-12-11T14:15:35;4.80;;;3.27;;
5209;SDS011;2624;48.048;11.706;2022-12-11T14:20:37;10.90;;;4.20;;
5209;SDS011;2624;48.048;11.706;2022-12-11T14:25:39;8.37;;;5.00;;
5209;SDS011;2624;48.048;11.706;2022-12-11T14:30:43;10.27;;;4.20;;
5209;SDS011;2624;48.048;11.706;2022-12-11T14:35:50;10.40;;;5.17;;
5209;SDS011;2624;48.048;11.706;2022-12-11T14:40:54;16.07;;;7.20;;
5209;SDS011;2624;48.048;11.706;2022-12-11T14:46:01;18.47;;;6.53;;
5209;SDS011;2624;48.048;11.706;2022-12-11T14:51:09;9.93;;;4.47;;
5209;SDS011;2624;48.048;11.706;2022-12-11T14:56:15;7.30;;;4.27;;
5209;SDS011;2624;48.048;11.706;2022-12-11T15:01:22;6.47;;;3.53;;
5209;SDS011;2624;48.048;11.706;2022-12-11T15:06:26;8.70;;;2.97;;
5209;SDS011;2624;48.048;11.706;2022-12-11T15:11:30;4.03;;;3.63;;
5209;SDS011;2624;48.048;11.706;2022-12-11T15:16:35;4.50;;;3.40;;
5209;SDS011;2624;48.048;11.706;2022-12-11T15:21:39;15.00;;;6.23;;
5209;SDS011;2624;48.048;11.706;2022-12-11T15:26:43;13.93;;;6.00;;
5209;SDS011;2624;48.048;11.706;2022-12-11T15:31:56;6.77;;;3.90;;
5209;SDS011;2624;48.048;11.706;2022-12-11T15:36:59;11.20;;;5.00;;
5209;SDS011;2624;48.048;11.706;2022-12-11T15:42:01;12.80;;;5.90;;
5209;SDS011;2624;48.048;11.706;2022-12-11T15:47:11;7.70;;;4.20;;
5209;SDS011;2624;48.048;11.706;2022-12-11T15:52:14;6.27;;;3.50;;
5209;SDS011;2624;48.048;11.706;2022-12-11T15:57:17;3.90;;;3.00;;
5209;SDS011;2624;48.048;11.706;2022-12-11T16:02:22;4.73;;;3.20;;
5209;SDS011;2624;48.048;11.706;2022-12-11T16:07:25;5.13;;;3.80;;
5209;SDS011;2624;48.048;11.706;2022-12-11T16:12:27;7.80;;;3.87;;
5209;SDS011;2624;48.048;11.706;2022-12-11T16:17:30;12.90;;;4.03;;
5209;SDS011;2624;48.048;11.706;2022-12-11T16:22:32;5.87;;;4.07;;
5209;SDS011;2624;48.048;11.706;2022-12-11T16:27:34;6.00;;;3.67;;
5209;SDS011;2624;48.048;11.706;2022-12-11T16:32:37;6.50;;;3.20;;
5209;SDS011;2624;48.048;11.706;2022-12-11T16:37:39;9.33;;;4.97;;
5209;SDS011;2624;48.048;11.706;2022-12-11T16:42:41;10.17;;;3.10;;
5209;SDS011;2624;48.048;11.706;2022-12-11T16:47:44;5.73;;;3.40;;
5209;SDS011;2624;48.048;11.706;2022-12-11T16:52:46;7.43;;;4.63;;
5209;SDS011;2624;48.048;11.706;2022-12-11T16:57:47;4.47;;;3.37;;
5209;SDS011;2624;48.048;11.706;2022-12-11T17:02:51;6.57;;;4.00;;
5209;SDS011;2624;48.048;11.706;2022-12-11T17:07:52;7.80;;;2.87;;
5209;SDS011;2624;48.048;11.706;2022-12-11T17:12:54;8.93;;;5.43;;
5209;SDS011;2624;48.048;11.706;2022-12-11T17:17:57;13.60;;;5.67;;
5209;SDS011;2624;48.048;11.706;2022-12-11T17:22:59;25.33;;;9.10;;
5209;SDS011;2624;48.048;11.706;2022-12-11T17:28:01;65.20;;;19.07;;
5209;SDS011;2624;48.048;11.706;2022-12-11T17:33:04;72.17;;;22.97;;
5209;SDS011;2624;48.048;11.706;2022-12-11T17:38:06;98.73;;;24.70;;
5209;SDS011;2624;48.048;11.706;2022-12-11T17:43:08;31.53;;;11.77;;
5209;SDS011;2624;48.048;11.706;2022-12-11T17:48:13;13.43;;;7.80;;
5209;SDS011;2624;48.048;11.706;2022-12-11T17:53:15;14.73;;;6.37;;
5209;SDS011;2624;48.048;11.706;2022-12-11T17:58:19;17.73;;;8.30;;
5209;SDS011;2624;48.048;11.706;2022-12-11T18:03:23;13.40;;;6.90;;
5209;SDS011;2624;48.048;11.706;2022-12-11T18:08:26;12.70;;;6.53;;
5209;SDS011;2624;48.048;11.706;2022-12-11T18:13:29;10.60;;;5.90;;
5209;SDS011;2624;48.048;11.706;2022-12-11T18:18:32;8.90;;;5.67;;
5209;SDS011;2624;48.048;11.706;2022-12-11T18:23:35;11.03;;;4.90;;
5209;SDS011;2624;48.048;11.706;2022-12-11T18:28:36;10.57;;;4.97;;
5209;SDS011;2624;48.048;11.706;2022-12-11T18:33:40;9.63;;;4.90;;
5209;SDS011;2624;48.048;11.706;2022-12-11T18:38:43;16.10;;;6.50;;
5209;SDS011;2624;48.048;11.706;2022-12-11T18:43:46;15.13;;;6.77;;
5209;SDS011;2624;48.048;11.706;2022-12-11T18:48:49;10.57;;;5.17;;
5209;SDS011;2624;48.048;11.706;2022-12-11T18:53:51;12.30;;;5.00;;
5209;SDS011;2624;48.048;11.706;2022-12-11T18:58:53;7.70;;;4.63;;
5209;SDS011;2624;48.048;11.706;2022-12-11T19:03:57;8.23;;;4.37;;
5209;SDS011;2624;48.048;11.706;2022-12-11T19:09:00;11.03;;;4.30;;
5209;SDS011;2624;48.048;11.706;2022-12-11T19:14:03;8.90;;;3.80;;
5209;SDS011;2624;48.048;11.706;2022-12-11T19:19:08;4.47;;;2.63;;
5209;SDS011;2624;48.048;11.706;2022-12-11T19:24:12;6.10;;;3.93;;
5209;SDS011;2624;48.048;11.706;2022-12-11T19:29:16;9.03;;;3.73;;
5209;SDS011;2624;48.048;11.706;2022-12-11T19:34:22;9.53;;;3.77;;
5209;SDS011;2624;48.048;11.706;2022-12-11T19:39:24;9.50;;;3.50;;
5209;SDS011;2624;48.048;11.706;2022-12-11T19:44:26;7.97;;;3.93;;
5209;SDS011;2624;48.048;11.706;2022-12-11T19:49:29;5.07;;;2.90;;
5209;SDS011;2624;48.048;11.706;2022-12-11T19:54:31;4.47;;;3.03;;
5209;SDS011;2624;48.048;11.706;2022-12-11T19:59:33;11.70;;;2.30;;
5209;SDS011;2624;48.048;11.706;2022-12-11T20:04:36;8.13;;;4.07;;
5209;SDS011;2624;48.048;11.706;2022-12-11T20:09:38;7.73;;;2.90;;
5209;SDS011;2624;48.048;11.706;2022-12-11T20:14:40;4.07;;;2.97;;
5209;SDS011;2624;48.048;11.706;2022-12-11T20:19:43;3.90;;;3.10;;
5209;SDS011;2624;48.048;11.706;2022-12-11T20:24:45;3.63;;;3.10;;
5209;SDS011;2624;48.048;11.706;2022-12-11T20:29:46;4.63;;;2.70;;
5209;SDS011;2624;48.048;11.706;2022-12-11T20:34:49;2.50;;;2.30;;
5209;SDS011;2624;48.048;11.706;2022-12-11T20:39:55;4.50;;;2.70;;
5209;SDS011;2624;48.048;11.706;2022-12-11T20:44:57;3.23;;;2.60;;
5209;SDS011;2624;48.048;11.706;2022-12-11T20:50:00;3.63;;;1.97;;
5209;SDS011;2624;48.048;11.706;2022-12-11T20:55:03;3.00;;;2.57;;
5209;SDS011;2624;48.048;11.706;2022-12-11T21:00:06;4.80;;;3.27;;
5209;SDS011;2624;48.048;11.706;2022-12-11T21:05:10;5.00;;;2.80;;
5209;SDS011;2624;48.048;11.706;2022-12-11T21:10:12;4.30;;;3.50;;
5209;SDS011;2624;48.048;11.706;2022-12-11T21:15:13;3.83;;;2.17;;
5209;SDS011;2624;48.048;11.706;2022-12-11T21:20:17;2.93;;;2.63;;
5209;SDS011;2624;48.048;11.706;2022-12-11T21:25:20;2.77;;;2.40;;
5209;SDS011;2624;48.048;11.706;2022-12-11T21:30:22;3.70;;;2.77;;
5209;SDS011;2624;48.048;11.706;2022-12-11T21:35:25;10.00;;;4.87;;
5209;SDS011;2624;48.048;11.706;2022-12-11T21:40:26;8.70;;;3.00;;
5209;SDS011;2624;48.048;11.706;2022-12-11T21:45:28;4.33;;;3.33;;
5209;SDS011;2624;48.048;11.706;2022-12-11T21:50:35;4.50;;;2.70;;
5209;SDS011;2624;48.048;11.706;2022-12-11T21:55:38;4.73;;;2.70;;
5209;SDS011;2624;48.048;11.706;2022-12-11T22:00:41;4.27;;;2.83;;
5209;SDS011;2624;48.048;11.706;2022-12-11T22:05:46;3.60;;;2.77;;
5209;SDS011;2624;48.048;11.706;2022-12-11T22:10:48;7.67;;;3.20;;
5209;SDS011;2624;48.048;11.706;2022-12-11T22:15:50;8.50;;;3.60;;
5209;SDS011;2624;48.048;11.706;2022-12-11T22:20:53;3.43;;;2.70;;
5209;SDS011;2624;48.048;11.706;2022-12-11T22:25:55;6.10;;;1.83;;
5209;SDS011;2624;48.048;11.706;2022-12-11T22:30:57;3.17;;;2.40;;
5209;SDS011;2624;48.048;11.706;2022-12-11T22:36:01;2.40;;;1.93;;
5209;SDS011;2624;48.048;11.706;2022-12-11T22:41:07;5.77;;;2.63;;
5209;SDS011;2624;48.048;11.706;2022-12-11T22:46:12;4.77;;;2.87;;
5209;SDS011;2624;48.048;11.706;2022-12-11T22:51:16;6.63;;;2.43;;
5209;SDS011;2624;48.048;11.706;2022-12-11T22:56:18;2.50;;;2.30;;
5209;SDS011;2624;48.048;11.706;2022-12-11T23:01:20;5.17;;;3.40;;
5209;SDS011;2624;48.048;11.706;2022-12-11T23:06:26;7.73;;;2.80;;
5209;SDS011;2624;48.048;11.706;2022-12-11T23:11:29;6.40;;;3.50;;
5209;SDS011;2624;48.048;11.706;2022-12-11T23:16:33;4.40;;;2.97;;
5209;SDS011;2624;48.048;11.706;2022-12-11T23:21:37;6.10;;;2.47;;
5209;SDS011;2624;48.048;11.706;2022-12-11T23:26:39;4.73;;;3.60;;
5209;SDS011;2624;48.048;11.706;2022-12-11T23:31:41;4.40;;;3.07;;
5209;SDS011;2624;48.048;11.706;2022-12-11T23:36:44;4.07;;;2.77;;
5209;SDS011;2624;48.048;11.706;2022-12-11T23:41:46;6.07;;;2.80;;
5209;SDS011;2624;48.048;11.706;2022-12-11T23:46:48;4.47;;;3.07;;
5209;SDS011;2624;48.048;11.706;2022-12-11T23:51:51;4.93;;;3.43;;
5209;SDS011;2624;48.048;11.706;2022-12-11T23:56:53;7.63;;;3.00;;
